Bookmark and Share
Track history (hours):
 

Arthur Brusco

More information available from US FCC via Universal Licensing System and Coast Guard Vessel Documentation Center.

Last reported at 2014-Apr-15 08:32 UTC. Time now 2014-Apr-21 03:15 UTC.
Position N 37°57' W 121°20'.

Length 35 m; draft 4.2 m.

Type: Towing. MMSI: 367008020.

NotesDate/timePositionNaut miles runAvg speedWind from/ knotsBaromVisibWave heightAir tempDewpointWater temp
2014-Apr-15 08:32N 37°57' W 121°20'35 3.2
2014-Apr-14 21:34N 38°03' W 122°04'19 9.3
2014-Apr-14 19:33N 37°57' W 122°26'1010.0
2014-Apr-14 18:34N 37°48' W 122°20'1 1.3
2014-Apr-14 17:34N 37°48' W 122°19'0 0.0
2014-Apr-14 16:34N 37°48' W 122°19'0 0.0
2014-Apr-14 15:34N 37°48' W 122°19'0 0.0
2014-Apr-14 14:34N 37°48' W 122°19'1 0.6
2014-Apr-14 13:34N 37°48' W 122°19'12 6.2
2014-Apr-14 11:32N 37°59' W 122°25'7 6.8
2014-Apr-14 10:33N 38°03' W 122°18'  
2014-Apr-10 07:26N 37°57' W 121°20'5 5.5
2014-Apr-10 06:33N 37°60' W 121°25'13 5.9
2014-Apr-10 04:16N 38°02' W 121°42'8 7.6
2014-Apr-10 03:16N 38°04' W 121°52'7 9.4
2014-Apr-10 02:32N 38°04' W 122°00'9 8.7
2014-Apr-10 01:33N 38°03' W 122°11'8 8.5
2014-Apr-10 00:33N 38°02' W 122°22'9 8.8
2014-Apr-09 23:33N 37°53' W 122°25'6 6.2
2014-Apr-09 22:33N 37°49' W 122°19'0 0.1
2014-Apr-09 21:33N 37°49' W 122°19'0 0.0
2014-Apr-09 20:33N 37°49' W 122°19'0 0.0
2014-Apr-09 19:33N 37°49' W 122°19'0 0.0
2014-Apr-09 18:33N 37°49' W 122°19'0 0.0
2014-Apr-09 17:33N 37°49' W 122°19'0 0.0
2014-Apr-09 16:33N 37°49' W 122°19'0 0.0
2014-Apr-09 15:33N 37°49' W 122°19'0 0.3
2014-Apr-09 14:33N 37°49' W 122°20'6 6.1
2014-Apr-09 13:33N 37°53' W 122°25'7 6.5
2014-Apr-09 12:33N 37°60' W 122°25'6 6.0
2014-Apr-09 11:33N 38°03' W 122°19'8 7.8
2014-Apr-09 10:33N 38°02' W 122°09'32 6.3
2014-Apr-09 05:26N 38°01' W 121°28'  

Dump ship's entire track history

sailing weather and tide predictions

Arthur Brusco — WDC3449 — position and weather